createdAt,value
2023-03-05T00:00:47.206Z,4.90
2023-03-05T00:03:31.589Z,5.38
2023-03-05T00:06:02.931Z,5.15
2023-03-05T00:08:33.802Z,4.95
2023-03-05T00:11:05.454Z,5.20
2023-03-05T00:13:36.788Z,5.38
2023-03-05T00:16:08.913Z,5.32
2023-03-05T00:18:42.411Z,5.47
2023-03-05T00:21:21.185Z,5.00
2023-03-05T00:23:52.133Z,4.18
2023-03-05T00:26:24.040Z,5.00
2023-03-05T00:28:55.007Z,5.32
2023-03-05T00:31:27.490Z,4.63
2023-03-05T00:34:02.307Z,4.95
2023-03-05T00:36:33.418Z,4.20
2023-03-05T00:39:04.208Z,4.47
2023-03-05T00:41:35.213Z,5.30
2023-03-05T00:44:05.990Z,4.70
2023-03-05T00:46:38.687Z,4.07
2023-03-05T00:49:12.126Z,4.40
2023-03-05T00:51:43.887Z,4.72
2023-03-05T00:54:14.637Z,4.40
2023-03-05T00:56:45.891Z,4.30
2023-03-05T00:59:16.723Z,4.30
2023-03-05T01:01:48.424Z,4.20
2023-03-05T01:04:22.132Z,3.40
2023-03-05T01:06:53.662Z,3.63
2023-03-05T01:09:25.418Z,3.70
2023-03-05T01:11:57.500Z,3.70
2023-03-05T01:14:28.602Z,3.90
2023-03-05T01:17:00.923Z,3.85
2023-03-05T01:19:34.815Z,3.40
2023-03-05T01:22:06.423Z,3.85
2023-03-05T01:24:37.672Z,3.70
2023-03-05T01:27:09.275Z,2.95
2023-03-05T01:29:40.261Z,3.25
2023-03-05T01:32:11.732Z,3.42
2023-03-05T01:34:45.483Z,3.60
2023-03-05T01:37:16.965Z,3.47
2023-03-05T01:39:47.701Z,3.28
2023-03-05T01:42:19.619Z,3.13
2023-03-05T01:45:03.862Z,2.47
2023-03-05T01:47:35.257Z,2.67
2023-03-05T01:50:09.336Z,2.45
2023-03-05T01:52:42.709Z,3.13
2023-03-05T01:55:16.678Z,2.70
2023-03-05T01:57:49.671Z,2.92
2023-03-05T02:00:23.134Z,3.10
2023-03-05T02:02:54.827Z,3.33
2023-03-05T02:05:30.146Z,2.28
2023-03-05T02:08:02.288Z,2.53
2023-03-05T02:10:34.996Z,2.60
2023-03-05T02:13:08.467Z,2.35
2023-03-05T02:15:39.964Z,2.50
2023-03-05T02:18:12.417Z,2.90
2023-03-05T02:20:50.475Z,2.30
2023-03-05T02:23:25.318Z,2.42
2023-03-05T02:25:56.808Z,2.85
2023-03-05T02:28:31.409Z,2.70
2023-03-05T02:31:02.698Z,2.50
2023-03-05T02:33:34.208Z,2.38
2023-03-05T02:39:16.196Z,2.28
2023-03-05T02:41:47.820Z,2.95
2023-03-05T02:44:18.961Z,2.60
2023-03-05T02:46:50.563Z,2.67
2023-03-05T02:49:21.669Z,2.13
2023-03-05T02:51:53.203Z,2.45
2023-03-05T02:54:27.173Z,2.13
2023-03-05T02:56:58.906Z,2.38
2023-03-05T02:59:29.942Z,2.05
2023-03-05T03:02:01.283Z,2.58
2023-03-05T03:04:32.421Z,2.50
2023-03-05T03:07:03.854Z,2.22
2023-03-05T03:09:38.451Z,2.47
2023-03-05T03:12:10.108Z,2.55
2023-03-05T03:14:42.755Z,2.38
2023-03-05T03:17:15.401Z,2.45
2023-03-05T03:19:47.137Z,2.40
2023-03-05T03:22:19.000Z,2.55
2023-03-05T03:24:52.573Z,2.38
2023-03-05T03:27:23.784Z,2.40
2023-03-05T03:29:54.595Z,2.58
2023-03-05T03:32:25.421Z,2.85
2023-03-05T03:34:56.151Z,2.38
2023-03-05T03:37:27.351Z,2.67
2023-03-05T03:40:00.455Z,2.63
2023-03-05T03:42:31.430Z,2.10
2023-03-05T03:45:02.650Z,2.60
2023-03-05T03:47:33.659Z,2.40
2023-03-05T03:50:04.364Z,2.28
2023-03-05T03:52:35.369Z,2.25
2023-03-05T03:55:08.726Z,2.40
2023-03-05T03:57:40.678Z,2.50
2023-03-05T04:00:13.011Z,2.92
2023-03-05T04:02:44.339Z,2.30
2023-03-05T04:05:15.186Z,2.30
2023-03-05T04:07:46.346Z,2.30
2023-03-05T04:10:19.489Z,2.40
2023-03-05T04:12:53.620Z,2.45
2023-03-05T04:15:25.148Z,2.50
2023-03-05T04:17:56.455Z,2.78
2023-03-05T04:20:27.354Z,3.20
2023-03-05T04:22:58.705Z,2.22
2023-03-05T04:25:29.432Z,2.50
2023-03-05T04:28:03.407Z,2.45
2023-03-05T04:30:34.458Z,3.03
2023-03-05T04:33:05.821Z,2.83
2023-03-05T04:35:41.767Z,2.88
2023-03-05T04:38:13.310Z,2.10
2023-03-05T04:40:44.001Z,2.50
2023-03-05T04:43:17.968Z,2.60
2023-03-05T04:45:48.812Z,2.08
2023-03-05T04:48:20.031Z,2.42
2023-03-05T04:50:51.084Z,3.15
2023-03-05T04:53:22.393Z,2.50
2023-03-05T04:55:55.609Z,2.58
2023-03-05T04:58:30.032Z,2.83
2023-03-05T05:01:03.750Z,2.10
2023-03-05T05:03:35.375Z,2.40
2023-03-05T05:06:06.394Z,2.10
2023-03-05T05:08:38.542Z,2.78
2023-03-05T05:11:10.216Z,2.60
2023-03-05T05:13:44.461Z,2.45
2023-03-05T05:16:16.621Z,2.65
2023-03-05T05:18:48.320Z,2.20
2023-03-05T05:21:20.739Z,2.22
2023-03-05T05:24:47.678Z,2.45
2023-03-05T05:27:19.060Z,2.40
2023-03-05T05:29:52.981Z,2.72
2023-03-05T05:32:25.147Z,3.03
2023-03-05T05:34:59.571Z,2.33
2023-03-05T05:37:31.306Z,2.67
2023-03-05T05:40:05.574Z,2.35
2023-03-05T05:42:36.775Z,2.20
2023-03-05T05:45:08.256Z,2.22
2023-03-05T05:47:39.669Z,2.22
2023-03-05T05:50:10.840Z,2.78
2023-03-05T05:52:44.805Z,2.05
2023-03-05T05:55:18.107Z,3.05
2023-03-05T05:57:49.264Z,3.00
2023-03-05T06:00:20.647Z,3.00
2023-03-05T06:02:51.736Z,3.10
2023-03-05T06:05:22.749Z,2.60
2023-03-05T06:07:54.013Z,2.42
2023-03-05T06:10:27.291Z,2.03
2023-03-05T06:12:58.573Z,2.22
2023-03-05T06:15:29.710Z,2.65
2023-03-05T06:18:01.910Z,2.50
2023-03-05T06:20:32.731Z,3.17
2023-03-05T06:23:04.284Z,2.70
2023-03-05T06:25:38.232Z,2.80
2023-03-05T06:28:11.805Z,2.63
2023-03-05T06:30:42.662Z,2.72
2023-03-05T06:33:14.180Z,2.95
2023-03-05T06:35:46.411Z,2.90
2023-03-05T06:38:17.590Z,2.88
2023-03-05T06:40:53.474Z,2.60
2023-03-05T06:43:26.766Z,2.78
2023-03-05T06:46:05.085Z,2.20
2023-03-05T06:48:36.535Z,2.75
2023-03-05T06:51:07.937Z,2.40
2023-03-05T06:53:39.100Z,2.83
2023-03-05T06:56:14.182Z,2.72
2023-03-05T06:58:46.194Z,2.60
2023-03-05T07:01:17.273Z,2.22
2023-03-05T07:03:51.708Z,2.40
2023-03-05T07:06:23.064Z,2.50
2023-03-05T07:09:01.551Z,2.22
2023-03-05T07:11:35.236Z,2.30
2023-03-05T07:14:07.890Z,2.08
2023-03-05T07:16:40.454Z,2.40
2023-03-05T07:19:11.332Z,2.28
2023-03-05T07:21:43.528Z,2.20
2023-03-05T07:24:15.701Z,2.60
2023-03-05T07:26:49.139Z,2.60
2023-03-05T07:29:20.214Z,2.38
2023-03-05T07:31:51.113Z,2.40
2023-03-05T07:34:23.498Z,2.63
2023-03-05T07:36:56.353Z,2.22
2023-03-05T07:39:28.068Z,2.40
2023-03-05T07:42:01.931Z,2.55
2023-03-05T07:44:34.890Z,2.05
2023-03-05T07:47:06.105Z,2.17
2023-03-05T07:49:39.712Z,2.35
2023-03-05T07:52:12.185Z,2.40
2023-03-05T07:54:45.169Z,2.25
2023-03-05T07:57:22.198Z,2.42
2023-03-05T07:59:53.326Z,2.80
2023-03-05T08:02:34.245Z,2.10
2023-03-05T08:05:05.559Z,2.72
2023-03-05T08:07:36.338Z,2.45
2023-03-05T08:10:08.018Z,2.53
2023-03-05T08:12:41.472Z,2.55
2023-03-05T08:15:13.376Z,1.90
2023-03-05T08:17:43.876Z,2.33
2023-03-05T08:20:15.823Z,2.38
2023-03-05T08:22:46.695Z,1.75
2023-03-05T08:25:17.415Z,2.28
2023-03-05T08:27:53.341Z,2.22
2023-03-05T08:30:27.760Z,2.35
2023-03-05T08:32:58.925Z,1.95
2023-03-05T08:35:30.137Z,2.05
2023-03-05T08:38:01.113Z,2.00
2023-03-05T08:40:33.115Z,2.22
2023-03-05T08:43:07.626Z,2.13
2023-03-05T08:45:40.589Z,1.67
2023-03-05T08:48:11.135Z,1.90
2023-03-05T08:50:42.164Z,1.88
2023-03-05T08:53:13.108Z,1.90
2023-03-05T08:55:46.570Z,2.10
2023-03-05T08:58:19.944Z,2.05
2023-03-05T09:00:52.573Z,2.05
2023-03-05T09:03:23.391Z,1.80
2023-03-05T09:05:54.773Z,1.60
2023-03-05T09:08:25.716Z,1.90
2023-03-05T09:10:56.789Z,1.95
2023-03-05T09:13:30.351Z,1.90
2023-03-05T09:16:07.490Z,1.80
2023-03-05T09:18:40.754Z,1.75
2023-03-05T09:21:13.761Z,2.33
2023-03-05T09:23:45.235Z,2.05
2023-03-05T09:26:19.872Z,1.77
2023-03-05T09:28:53.843Z,1.67
2023-03-05T09:31:25.305Z,1.77
2023-03-05T09:33:56.532Z,2.00
2023-03-05T09:36:29.520Z,1.70
2023-03-05T09:39:01.405Z,1.63
2023-03-05T09:41:38.679Z,2.20
2023-03-05T09:44:18.381Z,2.00
2023-03-05T09:46:55.006Z,2.28
2023-03-05T09:49:34.015Z,2.25
2023-03-05T09:52:12.087Z,2.17
2023-03-05T09:54:48.784Z,1.85
2023-03-05T09:57:29.030Z,2.90
2023-03-05T10:00:08.993Z,2.47
2023-03-05T10:02:44.386Z,2.22
2023-03-05T10:05:23.299Z,2.20
2023-03-05T10:07:57.907Z,2.47
2023-03-05T10:10:30.162Z,2.40
2023-03-05T10:13:06.684Z,2.08
2023-03-05T10:15:44.678Z,2.25
2023-03-05T10:18:20.044Z,2.10
2023-03-05T10:20:59.863Z,2.00
2023-03-05T10:23:47.345Z,2.15
2023-03-05T10:26:25.253Z,2.30
2023-03-05T10:29:03.637Z,2.30
2023-03-05T10:31:48.247Z,2.38
2023-03-05T10:34:35.400Z,2.33
2023-03-05T10:37:18.963Z,2.35
2023-03-05T10:39:59.875Z,2.40
2023-03-05T10:42:37.940Z,2.40
2023-03-05T10:45:18.477Z,2.75
2023-03-05T10:47:54.918Z,2.30
2023-03-05T10:50:27.066Z,2.30
2023-03-05T10:53:07.312Z,2.58
2023-03-05T10:55:39.826Z,2.47
2023-03-05T10:58:15.173Z,2.47
2023-03-05T11:01:01.801Z,2.33
2023-03-05T11:06:50.996Z,2.33
2023-03-05T11:09:24.563Z,2.13
2023-03-05T11:12:14.755Z,2.60
2023-03-05T11:14:47.874Z,2.95
2023-03-05T11:17:31.514Z,2.80
2023-03-05T11:20:18.047Z,3.13
2023-03-05T11:23:05.405Z,2.03
2023-03-05T11:25:37.613Z,2.75
2023-03-05T11:28:08.933Z,2.28
2023-03-05T11:30:40.787Z,2.47
2023-03-05T11:33:13.410Z,2.25
2023-03-05T11:35:46.385Z,2.20
2023-03-05T11:38:25.013Z,2.45
2023-03-05T11:40:57.480Z,2.70
2023-03-05T11:43:29.092Z,2.30
2023-03-05T11:46:05.346Z,2.65
2023-03-05T11:55:18.238Z,1.88
2023-03-05T11:57:56.920Z,2.20
2023-03-05T12:00:38.060Z,2.38
2023-03-05T12:03:15.688Z,2.17
2023-03-05T12:05:51.651Z,2.30
2023-03-05T12:08:30.320Z,2.20
2023-03-05T12:11:10.842Z,2.10
2023-03-05T12:13:49.683Z,2.60
2023-03-05T12:16:29.712Z,2.38
2023-03-05T12:19:28.667Z,2.40
2023-03-05T12:22:01.126Z,2.17
2023-03-05T12:24:42.326Z,2.10
2023-03-05T12:27:19.762Z,2.30
2023-03-05T12:29:54.824Z,2.35
2023-03-05T12:33:11.102Z,2.10
2023-03-05T12:35:44.253Z,2.20
2023-03-05T12:38:32.469Z,2.50
2023-03-05T12:41:46.587Z,2.47
2023-03-05T12:44:24.507Z,2.05
2023-03-05T12:47:23.818Z,2.35
2023-03-05T12:49:56.875Z,2.47
2023-03-05T12:52:35.679Z,1.88
2023-03-05T12:55:25.896Z,2.40
2023-03-05T12:58:04.271Z,2.03
2023-03-05T13:03:42.490Z,2.28
2023-03-05T13:06:26.310Z,2.33
2023-03-05T13:09:01.789Z,2.25
2023-03-05T13:11:34.671Z,2.90
2023-03-05T13:14:05.609Z,2.58
2023-03-05T13:16:41.216Z,2.58
2023-03-05T13:19:20.709Z,2.80
2023-03-05T13:22:00.196Z,2.95
2023-03-05T13:32:28.916Z,2.60
2023-03-05T13:35:03.224Z,2.67
2023-03-05T13:37:37.718Z,3.17
2023-03-05T13:40:24.029Z,2.70
2023-03-05T13:42:57.074Z,2.65
2023-03-05T13:45:32.232Z,2.88
2023-03-05T13:48:10.624Z,2.63
2023-03-05T13:50:43.768Z,2.08
2023-03-05T13:53:19.601Z,2.95
2023-03-05T13:55:53.295Z,2.67
2023-03-05T13:58:47.744Z,2.53
2023-03-05T14:01:31.064Z,2.33
2023-03-05T14:04:10.930Z,2.40
2023-03-05T14:06:49.688Z,2.35
2023-03-05T14:10:00.180Z,2.13
2023-03-05T14:12:38.059Z,2.45
2023-03-05T14:15:24.736Z,2.55
2023-03-05T14:18:21.352Z,1.95
2023-03-05T14:21:06.572Z,2.00
2023-03-05T14:23:43.228Z,2.22
2023-03-05T14:26:26.906Z,2.13
2023-03-05T14:29:02.461Z,2.00
2023-03-05T14:31:41.996Z,1.98
2023-03-05T14:34:25.077Z,1.90
2023-03-05T14:36:59.919Z,2.25
2023-03-05T14:39:35.234Z,2.00
2023-03-05T14:42:39.181Z,2.22
2023-03-05T14:45:17.452Z,2.20
2023-03-05T14:47:49.219Z,2.00
2023-03-05T14:50:22.744Z,1.80
2023-03-05T14:52:56.556Z,1.88
2023-03-05T14:55:32.017Z,1.90
2023-03-05T14:58:07.912Z,2.17
2023-03-05T15:00:41.795Z,2.00
2023-03-05T15:03:14.576Z,2.05
2023-03-05T15:05:51.133Z,2.10
2023-03-05T15:08:29.337Z,2.10
2023-03-05T15:11:03.671Z,1.90
2023-03-05T15:13:37.689Z,1.90
2023-03-05T15:16:10.865Z,2.00
2023-03-05T15:18:41.901Z,2.00
2023-03-05T15:21:14.724Z,2.22
2023-03-05T15:23:47.762Z,1.90
2023-03-05T15:26:19.234Z,2.05
2023-03-05T15:28:52.936Z,1.95
2023-03-05T15:31:25.026Z,2.30
2023-03-05T15:33:56.175Z,1.80
2023-03-05T15:36:27.800Z,2.13
2023-03-05T15:38:59.140Z,2.10
2023-03-05T15:41:30.795Z,1.85
2023-03-05T15:44:05.200Z,1.88
2023-03-05T15:46:38.485Z,2.20
2023-03-05T15:49:09.763Z,1.80
2023-03-05T15:51:41.531Z,2.33
2023-03-05T15:54:13.733Z,1.95
2023-03-05T15:56:45.570Z,1.85
2023-03-05T15:59:20.400Z,1.80
2023-03-05T16:01:54.733Z,1.90
2023-03-05T16:04:25.941Z,1.90
2023-03-05T16:06:59.165Z,2.10
2023-03-05T16:09:35.333Z,1.85
2023-03-05T16:12:10.465Z,2.20
2023-03-05T16:14:45.279Z,1.90
2023-03-05T16:17:18.431Z,1.92
2023-03-05T16:19:53.466Z,2.00
2023-03-05T16:22:25.082Z,2.08
2023-03-05T16:24:57.203Z,2.10
2023-03-05T16:27:29.312Z,2.20
2023-03-05T16:30:03.464Z,2.47
2023-03-05T16:32:35.965Z,2.42
2023-03-05T16:35:09.016Z,2.45
2023-03-05T16:37:41.859Z,2.75
2023-03-05T16:40:15.604Z,2.92
2023-03-05T16:42:47.733Z,2.78
2023-03-05T16:45:22.507Z,2.53
2023-03-05T16:47:54.956Z,2.60
2023-03-05T16:50:26.488Z,2.78
2023-03-05T16:52:58.536Z,2.97
2023-03-05T16:55:30.335Z,2.50
2023-03-05T16:58:02.357Z,2.60
2023-03-05T17:00:36.743Z,3.25
2023-03-05T17:03:08.937Z,2.92
2023-03-05T17:05:41.336Z,3.10
2023-03-05T17:08:13.308Z,2.33
2023-03-05T17:10:46.927Z,3.00
2023-03-05T17:13:18.957Z,2.72
2023-03-05T17:15:56.263Z,2.17
2023-03-05T17:18:29.760Z,2.40
2023-03-05T17:21:01.330Z,2.38
2023-03-05T17:23:33.624Z,2.60
2023-03-05T17:26:08.186Z,2.13
2023-03-05T17:28:40.931Z,2.47
2023-03-05T17:31:17.653Z,2.22
2023-03-05T17:33:51.212Z,2.58
2023-03-05T17:36:24.546Z,2.40
2023-03-05T17:38:57.108Z,2.50
2023-03-05T17:41:28.716Z,2.38
2023-03-05T17:44:00.592Z,2.67
2023-03-05T17:46:35.037Z,2.70
2023-03-05T17:49:07.263Z,2.47
2023-03-05T17:51:40.707Z,2.58
2023-03-05T17:54:12.548Z,2.20
2023-03-05T17:56:44.811Z,2.28
2023-03-05T17:59:16.850Z,2.53
2023-03-05T18:01:51.172Z,2.75
2023-03-05T18:04:23.228Z,2.78
2023-03-05T18:06:55.048Z,2.40
2023-03-05T18:09:27.566Z,2.63
2023-03-05T18:11:59.779Z,2.67
2023-03-05T18:14:31.743Z,2.45
2023-03-05T18:17:05.921Z,2.60
2023-03-05T18:19:38.099Z,2.83
2023-03-05T18:22:09.680Z,2.47
2023-03-05T18:24:41.702Z,2.67
2023-03-05T18:27:13.324Z,2.50
2023-03-05T18:29:45.406Z,2.70
2023-03-05T18:32:20.279Z,2.30
2023-03-05T18:34:52.372Z,2.67
2023-03-05T18:37:23.790Z,3.00
2023-03-05T18:39:58.227Z,3.00
2023-03-05T18:42:29.951Z,2.35
2023-03-05T18:45:02.425Z,2.60
2023-03-05T18:47:36.907Z,2.40
2023-03-05T18:50:10.822Z,2.65
2023-03-05T18:52:42.746Z,2.60
2023-03-05T18:55:19.904Z,2.40
2023-03-05T18:57:52.049Z,3.00
2023-03-05T19:00:27.152Z,2.72
2023-03-05T19:03:03.788Z,2.63
2023-03-05T19:05:36.331Z,2.90
2023-03-05T19:08:11.194Z,3.30
2023-03-05T19:10:43.621Z,2.60
2023-03-05T19:13:28.445Z,2.55
2023-03-05T19:16:01.214Z,2.67
2023-03-05T19:18:40.151Z,2.72
2023-03-05T19:21:11.924Z,2.22
2023-03-05T19:23:43.415Z,2.60
2023-03-05T19:26:15.181Z,2.50
2023-03-05T19:28:46.508Z,2.70
2023-03-05T19:31:19.045Z,2.72
2023-03-05T19:33:53.181Z,3.05
2023-03-05T19:36:25.357Z,2.72
2023-03-05T19:38:59.123Z,2.90
2023-03-05T19:41:30.752Z,2.85
2023-03-05T19:44:02.428Z,2.67
2023-03-05T19:50:00.314Z,3.20
2023-03-05T19:52:33.393Z,4.20
2023-03-05T19:55:05.242Z,4.20
2023-03-05T19:57:37.636Z,3.60
2023-03-05T20:00:11.391Z,3.38
2023-03-05T20:02:43.944Z,3.63
2023-03-05T20:05:18.965Z,3.28
2023-03-05T20:07:51.306Z,3.70
2023-03-05T20:10:23.485Z,3.75
2023-03-05T20:12:58.037Z,3.78
2023-03-05T20:15:30.616Z,3.80
2023-03-05T20:18:02.965Z,4.10
2023-03-05T20:20:45.115Z,3.70
2023-03-05T20:23:19.561Z,4.28
2023-03-05T20:26:12.780Z,4.13
2023-03-05T20:28:44.884Z,3.85
2023-03-05T20:31:16.125Z,4.18
2023-03-05T20:33:47.834Z,3.90
2023-03-05T20:36:22.403Z,4.30
2023-03-05T20:38:55.371Z,3.63
2023-03-05T20:41:27.240Z,3.97
2023-03-05T20:43:59.074Z,3.88
2023-03-05T20:46:32.768Z,3.90
2023-03-05T20:49:07.060Z,4.53
2023-03-05T20:51:41.316Z,4.00
2023-03-05T20:54:15.901Z,4.40
2023-03-05T20:56:48.157Z,3.55
2023-03-05T20:59:23.636Z,4.05
2023-03-05T21:01:55.108Z,4.05
2023-03-05T21:04:26.731Z,3.85
2023-03-05T21:07:00.556Z,3.78
2023-03-05T21:09:32.437Z,4.00
2023-03-05T21:12:04.285Z,3.53
2023-03-05T21:14:38.517Z,3.97
2023-03-05T21:17:10.981Z,4.10
2023-03-05T21:19:43.077Z,4.35
2023-03-05T21:22:17.214Z,4.40
2023-03-05T21:25:02.362Z,4.60
2023-03-05T21:27:34.010Z,4.72
2023-03-05T21:30:06.115Z,4.82
2023-03-05T21:32:37.469Z,5.20
2023-03-05T21:35:09.901Z,5.32
2023-03-05T21:37:44.640Z,5.53
2023-03-05T21:40:19.695Z,5.95
2023-03-05T21:42:51.141Z,5.47
2023-03-05T21:45:24.663Z,5.82
2023-03-05T21:47:56.298Z,6.20
2023-03-05T21:50:29.554Z,5.82
2023-03-05T21:53:04.544Z,5.65
2023-03-05T21:55:45.773Z,5.28
2023-03-05T21:58:18.831Z,5.70
2023-03-05T22:00:50.832Z,5.88
2023-03-05T22:03:22.637Z,5.55
2023-03-05T22:05:54.894Z,5.88
2023-03-05T22:08:29.933Z,6.20
2023-03-05T22:11:01.846Z,6.55
2023-03-05T22:13:33.776Z,7.13
2023-03-05T22:16:05.449Z,6.57
2023-03-05T22:18:37.270Z,6.80
2023-03-05T22:21:20.456Z,7.57
2023-03-05T22:23:57.349Z,7.70
2023-03-05T22:26:37.242Z,7.38
2023-03-05T22:29:13.360Z,7.38
2023-03-05T22:31:45.585Z,8.80
2023-03-05T22:34:17.347Z,9.25
2023-03-05T22:36:49.561Z,9.00
2023-03-05T22:39:23.781Z,9.50
2023-03-05T22:41:55.779Z,8.98
2023-03-05T22:44:27.442Z,8.02
2023-03-05T22:46:59.495Z,8.02
2023-03-05T22:49:30.884Z,8.98
2023-03-05T22:52:02.917Z,8.00
2023-03-05T22:54:37.204Z,8.05
2023-03-05T22:57:10.479Z,7.80
2023-03-05T22:59:42.074Z,7.32
2023-03-05T23:02:14.259Z,7.00
2023-03-05T23:04:53.483Z,6.20
2023-03-05T23:07:27.767Z,6.20
2023-03-05T23:10:04.202Z,6.47
2023-03-05T23:12:40.418Z,6.40
2023-03-05T23:15:15.724Z,6.75
2023-03-05T23:17:48.646Z,6.40
2023-03-05T23:20:22.489Z,7.18
2023-03-05T23:22:56.392Z,7.43
2023-03-05T23:25:33.690Z,7.43
2023-03-05T23:28:06.766Z,7.22
2023-03-05T23:30:40.866Z,6.95
2023-03-05T23:33:18.404Z,6.78
2023-03-05T23:35:55.303Z,6.15
2023-03-05T23:38:29.108Z,6.65
2023-03-05T23:41:04.040Z,6.10
2023-03-05T23:43:36.583Z,6.15
2023-03-05T23:46:14.175Z,6.50
2023-03-05T23:48:46.913Z,6.10
2023-03-05T23:51:19.456Z,5.30
2023-03-05T23:53:51.898Z,6.40
2023-03-05T23:56:26.821Z,6.90
2023-03-05T23:59:00.901Z,6.90
